sensor_id;sensor_type;location;lat;lon;timestamp;P1;durP1;ratioP1;P2;durP2;ratioP2
39956;SDS011;48483;44.640;7.494;2024-03-22T00:02:10;22.88;;;13.70;;
39956;SDS011;48483;44.640;7.494;2024-03-22T00:04:37;22.15;;;12.85;;
39956;SDS011;48483;44.640;7.494;2024-03-22T00:07:03;18.60;;;12.48;;
39956;SDS011;48483;44.640;7.494;2024-03-22T00:09:30;17.45;;;11.77;;
39956;SDS011;48483;44.640;7.494;2024-03-22T00:11:57;19.52;;;11.60;;
39956;SDS011;48483;44.640;7.494;2024-03-22T00:14:24;22.15;;;13.25;;
39956;SDS011;48483;44.640;7.494;2024-03-22T00:16:50;17.63;;;12.15;;
39956;SDS011;48483;44.640;7.494;2024-03-22T00:19:18;19.75;;;13.25;;
39956;SDS011;48483;44.640;7.494;2024-03-22T00:21:45;17.52;;;11.65;;
39956;SDS011;48483;44.640;7.494;2024-03-22T00:24:12;17.23;;;12.38;;
39956;SDS011;48483;44.640;7.494;2024-03-22T00:26:38;21.27;;;12.80;;
39956;SDS011;48483;44.640;7.494;2024-03-22T00:29:05;19.20;;;12.02;;
39956;SDS011;48483;44.640;7.494;2024-03-22T00:31:32;19.23;;;11.75;;
39956;SDS011;48483;44.640;7.494;2024-03-22T00:33:58;15.38;;;11.18;;
39956;SDS011;48483;44.640;7.494;2024-03-22T00:36:26;18.35;;;11.68;;
39956;SDS011;48483;44.640;7.494;2024-03-22T00:38:53;16.50;;;11.85;;
39956;SDS011;48483;44.640;7.494;2024-03-22T00:41:20;17.25;;;12.13;;
39956;SDS011;48483;44.640;7.494;2024-03-22T00:43:46;17.15;;;13.40;;
39956;SDS011;48483;44.640;7.494;2024-03-22T00:46:13;19.65;;;12.43;;
39956;SDS011;48483;44.640;7.494;2024-03-22T00:48:39;18.23;;;11.68;;
39956;SDS011;48483;44.640;7.494;2024-03-22T00:51:06;17.52;;;10.40;;
39956;SDS011;48483;44.640;7.494;2024-03-22T00:53:34;18.85;;;11.63;;
39956;SDS011;48483;44.640;7.494;2024-03-22T00:56:01;17.60;;;11.38;;
39956;SDS011;48483;44.640;7.494;2024-03-22T00:58:28;18.88;;;11.25;;
39956;SDS011;48483;44.640;7.494;2024-03-22T01:00:54;21.88;;;11.45;;
39956;SDS011;48483;44.640;7.494;2024-03-22T01:03:21;18.80;;;11.13;;
39956;SDS011;48483;44.640;7.494;2024-03-22T01:05:48;20.20;;;13.88;;
39956;SDS011;48483;44.640;7.494;2024-03-22T01:08:15;20.05;;;12.32;;
39956;SDS011;48483;44.640;7.494;2024-03-22T01:10:43;17.13;;;11.27;;
39956;SDS011;48483;44.640;7.494;2024-03-22T01:13:09;19.75;;;12.95;;
39956;SDS011;48483;44.640;7.494;2024-03-22T01:15:36;19.15;;;12.70;;
39956;SDS011;48483;44.640;7.494;2024-03-22T01:18:03;18.27;;;11.65;;
39956;SDS011;48483;44.640;7.494;2024-03-22T01:20:30;24.63;;;12.60;;
39956;SDS011;48483;44.640;7.494;2024-03-22T01:22:58;20.25;;;12.23;;
39956;SDS011;48483;44.640;7.494;2024-03-22T01:25:25;19.75;;;12.23;;
39956;SDS011;48483;44.640;7.494;2024-03-22T01:27:53;19.83;;;13.23;;
39956;SDS011;48483;44.640;7.494;2024-03-22T01:30:22;18.40;;;11.50;;
39956;SDS011;48483;44.640;7.494;2024-03-22T01:32:48;16.15;;;11.43;;
39956;SDS011;48483;44.640;7.494;2024-03-22T01:35:15;20.05;;;13.77;;
39956;SDS011;48483;44.640;7.494;2024-03-22T01:37:42;17.65;;;12.52;;
39956;SDS011;48483;44.640;7.494;2024-03-22T01:40:09;17.17;;;11.23;;
39956;SDS011;48483;44.640;7.494;2024-03-22T01:42:36;19.95;;;12.48;;
39956;SDS011;48483;44.640;7.494;2024-03-22T01:45:05;16.85;;;11.63;;
39956;SDS011;48483;44.640;7.494;2024-03-22T01:47:32;22.55;;;12.90;;
39956;SDS011;48483;44.640;7.494;2024-03-22T01:49:59;18.55;;;11.82;;
39956;SDS011;48483;44.640;7.494;2024-03-22T01:52:27;16.63;;;12.23;;
39956;SDS011;48483;44.640;7.494;2024-03-22T01:54:55;19.60;;;13.35;;
39956;SDS011;48483;44.640;7.494;2024-03-22T01:57:22;20.10;;;12.98;;
39956;SDS011;48483;44.640;7.494;2024-03-22T01:59:49;19.73;;;14.25;;
39956;SDS011;48483;44.640;7.494;2024-03-22T02:02:21;18.48;;;12.55;;
39956;SDS011;48483;44.640;7.494;2024-03-22T02:04:50;19.52;;;13.10;;
39956;SDS011;48483;44.640;7.494;2024-03-22T02:07:16;23.33;;;14.43;;
39956;SDS011;48483;44.640;7.494;2024-03-22T02:09:43;21.55;;;13.43;;
39956;SDS011;48483;44.640;7.494;2024-03-22T02:12:10;19.30;;;12.95;;
39956;SDS011;48483;44.640;7.494;2024-03-22T02:14:37;22.42;;;13.27;;
39956;SDS011;48483;44.640;7.494;2024-03-22T02:17:04;22.25;;;12.75;;
39956;SDS011;48483;44.640;7.494;2024-03-22T02:19:32;18.55;;;12.82;;
39956;SDS011;48483;44.640;7.494;2024-03-22T02:21:58;19.20;;;12.27;;
39956;SDS011;48483;44.640;7.494;2024-03-22T02:24:26;17.80;;;11.40;;
39956;SDS011;48483;44.640;7.494;2024-03-22T02:26:53;15.55;;;11.13;;
39956;SDS011;48483;44.640;7.494;2024-03-22T02:29:20;20.48;;;11.88;;
39956;SDS011;48483;44.640;7.494;2024-03-22T02:31:46;20.13;;;11.88;;
39956;SDS011;48483;44.640;7.494;2024-03-22T02:34:13;16.88;;;11.07;;
39956;SDS011;48483;44.640;7.494;2024-03-22T02:36:39;18.20;;;10.68;;
39956;SDS011;48483;44.640;7.494;2024-03-22T02:39:06;17.77;;;10.10;;
39956;SDS011;48483;44.640;7.494;2024-03-22T02:41:34;16.13;;;9.73;;
39956;SDS011;48483;44.640;7.494;2024-03-22T02:44:01;13.82;;;8.60;;
39956;SDS011;48483;44.640;7.494;2024-03-22T02:46:28;13.10;;;8.63;;
39956;SDS011;48483;44.640;7.494;2024-03-22T02:48:55;12.95;;;8.48;;
39956;SDS011;48483;44.640;7.494;2024-03-22T02:51:21;10.82;;;7.82;;
39956;SDS011;48483;44.640;7.494;2024-03-22T02:53:48;12.93;;;7.57;;
39956;SDS011;48483;44.640;7.494;2024-03-22T02:56:15;17.50;;;7.88;;
39956;SDS011;48483;44.640;7.494;2024-03-22T02:58:42;12.88;;;7.63;;
39956;SDS011;48483;44.640;7.494;2024-03-22T03:01:09;12.40;;;6.90;;
39956;SDS011;48483;44.640;7.494;2024-03-22T03:03:36;14.25;;;7.22;;
39956;SDS011;48483;44.640;7.494;2024-03-22T03:06:02;10.60;;;7.40;;
39956;SDS011;48483;44.640;7.494;2024-03-22T03:08:29;12.40;;;8.05;;
39956;SDS011;48483;44.640;7.494;2024-03-22T03:10:56;11.73;;;7.15;;
39956;SDS011;48483;44.640;7.494;2024-03-22T03:13:22;10.23;;;7.25;;
39956;SDS011;48483;44.640;7.494;2024-03-22T03:15:50;11.90;;;8.30;;
39956;SDS011;48483;44.640;7.494;2024-03-22T03:18:17;10.38;;;6.65;;
39956;SDS011;48483;44.640;7.494;2024-03-22T03:20:44;11.30;;;6.57;;
39956;SDS011;48483;44.640;7.494;2024-03-22T03:23:10;13.23;;;6.85;;
39956;SDS011;48483;44.640;7.494;2024-03-22T03:25:37;10.25;;;6.72;;
39956;SDS011;48483;44.640;7.494;2024-03-22T03:28:04;11.48;;;7.30;;
39956;SDS011;48483;44.640;7.494;2024-03-22T03:30:32;11.38;;;6.68;;
39956;SDS011;48483;44.640;7.494;2024-03-22T03:33:00;15.85;;;7.45;;
39956;SDS011;48483;44.640;7.494;2024-03-22T03:35:27;9.48;;;6.70;;
39956;SDS011;48483;44.640;7.494;2024-03-22T03:37:55;10.45;;;6.15;;
39956;SDS011;48483;44.640;7.494;2024-03-22T03:40:21;10.68;;;5.85;;
39956;SDS011;48483;44.640;7.494;2024-03-22T03:42:50;10.82;;;7.10;;
39956;SDS011;48483;44.640;7.494;2024-03-22T03:45:17;12.07;;;6.60;;
39956;SDS011;48483;44.640;7.494;2024-03-22T03:47:43;10.93;;;6.57;;
39956;SDS011;48483;44.640;7.494;2024-03-22T03:50:11;11.15;;;6.55;;
39956;SDS011;48483;44.640;7.494;2024-03-22T03:52:38;8.95;;;5.75;;
39956;SDS011;48483;44.640;7.494;2024-03-22T03:55:05;9.15;;;4.97;;
39956;SDS011;48483;44.640;7.494;2024-03-22T03:57:32;9.40;;;5.72;;
39956;SDS011;48483;44.640;7.494;2024-03-22T03:59:58;10.40;;;5.20;;
39956;SDS011;48483;44.640;7.494;2024-03-22T04:02:25;8.30;;;4.88;;
39956;SDS011;48483;44.640;7.494;2024-03-22T04:04:52;9.07;;;4.50;;
39956;SDS011;48483;44.640;7.494;2024-03-22T04:07:20;9.90;;;5.28;;
39956;SDS011;48483;44.640;7.494;2024-03-22T04:09:47;7.05;;;4.03;;
39956;SDS011;48483;44.640;7.494;2024-03-22T04:12:14;8.52;;;4.30;;
39956;SDS011;48483;44.640;7.494;2024-03-22T04:14:40;11.13;;;5.05;;
39956;SDS011;48483;44.640;7.494;2024-03-22T04:17:07;9.82;;;5.35;;
39956;SDS011;48483;44.640;7.494;2024-03-22T04:19:34;10.75;;;5.70;;
39956;SDS011;48483;44.640;7.494;2024-03-22T04:22:00;8.73;;;5.25;;
39956;SDS011;48483;44.640;7.494;2024-03-22T04:24:29;11.23;;;4.90;;
39956;SDS011;48483;44.640;7.494;2024-03-22T04:26:55;11.75;;;4.97;;
39956;SDS011;48483;44.640;7.494;2024-03-22T04:29:22;12.57;;;5.80;;
39956;SDS011;48483;44.640;7.494;2024-03-22T04:31:49;12.13;;;5.30;;
39956;SDS011;48483;44.640;7.494;2024-03-22T04:34:15;9.13;;;5.00;;
39956;SDS011;48483;44.640;7.494;2024-03-22T04:36:42;7.97;;;5.00;;
39956;SDS011;48483;44.640;7.494;2024-03-22T04:39:09;7.85;;;5.13;;
39956;SDS011;48483;44.640;7.494;2024-03-22T04:41:39;10.88;;;4.60;;
39956;SDS011;48483;44.640;7.494;2024-03-22T04:44:06;10.52;;;6.03;;
39956;SDS011;48483;44.640;7.494;2024-03-22T04:46:32;9.13;;;4.72;;
39956;SDS011;48483;44.640;7.494;2024-03-22T04:48:59;9.77;;;4.40;;
39956;SDS011;48483;44.640;7.494;2024-03-22T04:51:26;11.20;;;5.15;;
39956;SDS011;48483;44.640;7.494;2024-03-22T04:53:52;6.07;;;4.00;;
39956;SDS011;48483;44.640;7.494;2024-03-22T04:56:19;8.38;;;4.55;;
39956;SDS011;48483;44.640;7.494;2024-03-22T04:58:47;8.15;;;5.38;;
39956;SDS011;48483;44.640;7.494;2024-03-22T05:01:14;10.75;;;5.03;;
39956;SDS011;48483;44.640;7.494;2024-03-22T05:03:40;8.13;;;4.95;;
39956;SDS011;48483;44.640;7.494;2024-03-22T05:06:07;8.43;;;4.63;;
39956;SDS011;48483;44.640;7.494;2024-03-22T05:08:33;7.68;;;4.80;;
39956;SDS011;48483;44.640;7.494;2024-03-22T05:11:00;10.20;;;5.30;;
39956;SDS011;48483;44.640;7.494;2024-03-22T05:13:27;11.15;;;5.55;;
39956;SDS011;48483;44.640;7.494;2024-03-22T05:15:55;8.23;;;4.47;;
39956;SDS011;48483;44.640;7.494;2024-03-22T05:18:21;9.57;;;4.50;;
39956;SDS011;48483;44.640;7.494;2024-03-22T05:20:48;9.07;;;5.35;;
39956;SDS011;48483;44.640;7.494;2024-03-22T05:23:15;9.68;;;5.13;;
39956;SDS011;48483;44.640;7.494;2024-03-22T05:25:44;9.50;;;4.85;;
39956;SDS011;48483;44.640;7.494;2024-03-22T05:28:11;8.30;;;5.53;;
39956;SDS011;48483;44.640;7.494;2024-03-22T05:30:37;8.57;;;4.95;;
39956;SDS011;48483;44.640;7.494;2024-03-22T05:33:05;8.23;;;5.28;;
39956;SDS011;48483;44.640;7.494;2024-03-22T05:35:32;13.35;;;5.75;;
39956;SDS011;48483;44.640;7.494;2024-03-22T05:37:59;10.60;;;6.13;;
39956;SDS011;48483;44.640;7.494;2024-03-22T05:40:26;12.05;;;6.05;;
39956;SDS011;48483;44.640;7.494;2024-03-22T05:42:52;13.38;;;8.98;;
39956;SDS011;48483;44.640;7.494;2024-03-22T05:45:19;16.95;;;9.68;;
39956;SDS011;48483;44.640;7.494;2024-03-22T05:47:46;21.45;;;13.13;;
39956;SDS011;48483;44.640;7.494;2024-03-22T05:50:14;20.95;;;13.10;;
39956;SDS011;48483;44.640;7.494;2024-03-22T05:52:41;16.02;;;12.68;;
39956;SDS011;48483;44.640;7.494;2024-03-22T05:55:08;20.83;;;11.70;;
39956;SDS011;48483;44.640;7.494;2024-03-22T05:57:35;20.02;;;12.32;;
39956;SDS011;48483;44.640;7.494;2024-03-22T06:00:01;15.05;;;9.55;;
39956;SDS011;48483;44.640;7.494;2024-03-22T06:02:31;16.90;;;9.88;;
39956;SDS011;48483;44.640;7.494;2024-03-22T06:04:57;15.85;;;9.50;;
39956;SDS011;48483;44.640;7.494;2024-03-22T06:07:25;16.13;;;10.77;;
39956;SDS011;48483;44.640;7.494;2024-03-22T06:09:52;16.95;;;11.18;;
39956;SDS011;48483;44.640;7.494;2024-03-22T06:12:19;19.77;;;12.52;;
39956;SDS011;48483;44.640;7.494;2024-03-22T06:14:48;15.93;;;11.27;;
39956;SDS011;48483;44.640;7.494;2024-03-22T06:17:16;21.45;;;15.10;;
39956;SDS011;48483;44.640;7.494;2024-03-22T06:19:43;29.85;;;16.63;;
39956;SDS011;48483;44.640;7.494;2024-03-22T06:22:09;25.35;;;18.75;;
39956;SDS011;48483;44.640;7.494;2024-03-22T06:24:37;28.08;;;19.40;;
39956;SDS011;48483;44.640;7.494;2024-03-22T06:27:04;28.15;;;17.10;;
39956;SDS011;48483;44.640;7.494;2024-03-22T06:29:31;24.67;;;16.98;;
39956;SDS011;48483;44.640;7.494;2024-03-22T06:31:57;24.15;;;17.08;;
39956;SDS011;48483;44.640;7.494;2024-03-22T06:34:24;25.05;;;18.50;;
39956;SDS011;48483;44.640;7.494;2024-03-22T06:36:51;29.05;;;18.42;;
39956;SDS011;48483;44.640;7.494;2024-03-22T06:39:18;24.00;;;17.05;;
39956;SDS011;48483;44.640;7.494;2024-03-22T06:41:47;26.40;;;18.00;;
39956;SDS011;48483;44.640;7.494;2024-03-22T06:44:13;36.42;;;20.27;;
39956;SDS011;48483;44.640;7.494;2024-03-22T06:46:40;27.48;;;19.52;;
39956;SDS011;48483;44.640;7.494;2024-03-22T06:49:07;33.08;;;18.10;;
39956;SDS011;48483;44.640;7.494;2024-03-22T06:51:33;26.02;;;18.30;;
39956;SDS011;48483;44.640;7.494;2024-03-22T06:54:00;29.58;;;19.73;;
39956;SDS011;48483;44.640;7.494;2024-03-22T06:56:27;33.92;;;23.30;;
39956;SDS011;48483;44.640;7.494;2024-03-22T06:58:54;34.10;;;22.50;;
39956;SDS011;48483;44.640;7.494;2024-03-22T07:01:21;29.83;;;20.27;;
39956;SDS011;48483;44.640;7.494;2024-03-22T07:03:48;31.42;;;21.75;;
39956;SDS011;48483;44.640;7.494;2024-03-22T07:06:14;29.33;;;21.63;;
39956;SDS011;48483;44.640;7.494;2024-03-22T07:08:41;31.10;;;22.05;;
39956;SDS011;48483;44.640;7.494;2024-03-22T07:11:08;29.58;;;20.98;;
39956;SDS011;48483;44.640;7.494;2024-03-22T07:13:35;30.33;;;21.65;;
39956;SDS011;48483;44.640;7.494;2024-03-22T07:16:03;36.00;;;23.38;;
39956;SDS011;48483;44.640;7.494;2024-03-22T07:18:30;31.45;;;23.00;;
39956;SDS011;48483;44.640;7.494;2024-03-22T07:20:57;29.90;;;22.45;;
39956;SDS011;48483;44.640;7.494;2024-03-22T07:23:27;33.80;;;23.60;;
39956;SDS011;48483;44.640;7.494;2024-03-22T07:25:54;31.75;;;23.23;;
39956;SDS011;48483;44.640;7.494;2024-03-22T07:28:21;33.25;;;23.70;;
39956;SDS011;48483;44.640;7.494;2024-03-22T07:30:47;31.30;;;22.42;;
39956;SDS011;48483;44.640;7.494;2024-03-22T07:33:15;32.67;;;23.10;;
39956;SDS011;48483;44.640;7.494;2024-03-22T07:35:43;35.67;;;23.75;;
39956;SDS011;48483;44.640;7.494;2024-03-22T07:38:10;33.50;;;26.20;;
39956;SDS011;48483;44.640;7.494;2024-03-22T07:40:37;36.40;;;25.60;;
39956;SDS011;48483;44.640;7.494;2024-03-22T07:43:03;35.70;;;27.73;;
39956;SDS011;48483;44.640;7.494;2024-03-22T07:45:34;36.35;;;26.95;;
39956;SDS011;48483;44.640;7.494;2024-03-22T07:48:01;36.63;;;26.52;;
39956;SDS011;48483;44.640;7.494;2024-03-22T07:50:29;39.63;;;26.30;;
39956;SDS011;48483;44.640;7.494;2024-03-22T07:52:55;42.22;;;28.42;;
39956;SDS011;48483;44.640;7.494;2024-03-22T07:55:22;39.83;;;28.75;;
39956;SDS011;48483;44.640;7.494;2024-03-22T07:57:49;39.80;;;28.80;;
39956;SDS011;48483;44.640;7.494;2024-03-22T08:00:17;41.28;;;28.70;;
39956;SDS011;48483;44.640;7.494;2024-03-22T08:02:44;40.05;;;30.23;;
39956;SDS011;48483;44.640;7.494;2024-03-22T08:05:10;44.30;;;31.33;;
39956;SDS011;48483;44.640;7.494;2024-03-22T08:07:38;41.35;;;29.67;;
39956;SDS011;48483;44.640;7.494;2024-03-22T08:10:05;41.20;;;29.52;;
39956;SDS011;48483;44.640;7.494;2024-03-22T08:12:32;41.53;;;30.95;;
39956;SDS011;48483;44.640;7.494;2024-03-22T08:14:59;44.88;;;32.92;;
39956;SDS011;48483;44.640;7.494;2024-03-22T08:17:26;49.20;;;34.30;;
39956;SDS011;48483;44.640;7.494;2024-03-22T08:19:52;45.65;;;31.52;;
39956;SDS011;48483;44.640;7.494;2024-03-22T08:22:19;44.38;;;32.83;;
39956;SDS011;48483;44.640;7.494;2024-03-22T08:24:47;44.50;;;33.42;;
39956;SDS011;48483;44.640;7.494;2024-03-22T08:27:14;46.45;;;33.10;;
39956;SDS011;48483;44.640;7.494;2024-03-22T08:29:41;43.97;;;33.40;;
39956;SDS011;48483;44.640;7.494;2024-03-22T08:32:07;42.75;;;32.58;;
39956;SDS011;48483;44.640;7.494;2024-03-22T08:34:34;42.65;;;31.67;;
39956;SDS011;48483;44.640;7.494;2024-03-22T08:37:01;41.25;;;30.77;;
39956;SDS011;48483;44.640;7.494;2024-03-22T08:39:29;44.10;;;30.55;;
39956;SDS011;48483;44.640;7.494;2024-03-22T08:41:58;40.85;;;30.10;;
39956;SDS011;48483;44.640;7.494;2024-03-22T08:44:24;45.50;;;32.95;;
39956;SDS011;48483;44.640;7.494;2024-03-22T08:46:51;44.10;;;33.72;;
39956;SDS011;48483;44.640;7.494;2024-03-22T08:49:17;46.83;;;34.55;;
39956;SDS011;48483;44.640;7.494;2024-03-22T08:51:45;43.20;;;33.17;;
39956;SDS011;48483;44.640;7.494;2024-03-22T08:54:12;49.88;;;35.10;;
39956;SDS011;48483;44.640;7.494;2024-03-22T08:56:38;43.50;;;33.03;;
39956;SDS011;48483;44.640;7.494;2024-03-22T08:59:06;46.00;;;34.65;;
39956;SDS011;48483;44.640;7.494;2024-03-22T09:01:33;47.13;;;34.42;;
39956;SDS011;48483;44.640;7.494;2024-03-22T09:04:01;47.47;;;34.95;;
39956;SDS011;48483;44.640;7.494;2024-03-22T09:06:27;43.78;;;34.65;;
39956;SDS011;48483;44.640;7.494;2024-03-22T09:08:54;46.55;;;33.53;;
39956;SDS011;48483;44.640;7.494;2024-03-22T09:11:23;46.92;;;33.35;;
39956;SDS011;48483;44.640;7.494;2024-03-22T09:13:51;44.53;;;31.92;;
39956;SDS011;48483;44.640;7.494;2024-03-22T09:16:19;45.97;;;33.33;;
39956;SDS011;48483;44.640;7.494;2024-03-22T09:18:46;44.45;;;33.40;;
39956;SDS011;48483;44.640;7.494;2024-03-22T09:21:13;49.58;;;34.25;;
39956;SDS011;48483;44.640;7.494;2024-03-22T09:23:40;43.03;;;33.25;;
39956;SDS011;48483;44.640;7.494;2024-03-22T09:26:06;40.63;;;32.35;;
39956;SDS011;48483;44.640;7.494;2024-03-22T09:28:33;45.13;;;34.95;;
39956;SDS011;48483;44.640;7.494;2024-03-22T09:31:03;45.03;;;33.88;;
39956;SDS011;48483;44.640;7.494;2024-03-22T09:33:31;49.72;;;36.42;;
39956;SDS011;48483;44.640;7.494;2024-03-22T09:35:58;49.97;;;36.72;;
39956;SDS011;48483;44.640;7.494;2024-03-22T09:38:25;47.15;;;33.28;;
39956;SDS011;48483;44.640;7.494;2024-03-22T09:40:51;48.03;;;36.38;;
39956;SDS011;48483;44.640;7.494;2024-03-22T09:43:21;47.20;;;34.30;;
39956;SDS011;48483;44.640;7.494;2024-03-22T09:45:48;46.80;;;34.28;;
39956;SDS011;48483;44.640;7.494;2024-03-22T09:48:18;48.13;;;33.95;;
39956;SDS011;48483;44.640;7.494;2024-03-22T09:50:47;46.33;;;35.80;;
39956;SDS011;48483;44.640;7.494;2024-03-22T09:53:14;47.42;;;33.97;;
39956;SDS011;48483;44.640;7.494;2024-03-22T09:55:44;41.05;;;31.25;;
39956;SDS011;48483;44.640;7.494;2024-03-22T09:58:11;49.40;;;34.50;;
39956;SDS011;48483;44.640;7.494;2024-03-22T10:00:40;42.97;;;31.92;;
39956;SDS011;48483;44.640;7.494;2024-03-22T10:03:07;50.75;;;33.75;;
39956;SDS011;48483;44.640;7.494;2024-03-22T10:05:35;44.22;;;34.03;;
39956;SDS011;48483;44.640;7.494;2024-03-22T10:08:04;47.72;;;34.88;;
39956;SDS011;48483;44.640;7.494;2024-03-22T10:10:31;45.10;;;32.15;;
39956;SDS011;48483;44.640;7.494;2024-03-22T10:12:59;45.33;;;33.20;;
39956;SDS011;48483;44.640;7.494;2024-03-22T10:15:27;42.70;;;31.55;;
39956;SDS011;48483;44.640;7.494;2024-03-22T10:17:53;43.90;;;34.17;;
39956;SDS011;48483;44.640;7.494;2024-03-22T10:20:22;40.95;;;31.83;;
39956;SDS011;48483;44.640;7.494;2024-03-22T10:22:50;42.10;;;31.50;;
39956;SDS011;48483;44.640;7.494;2024-03-22T10:25:23;45.83;;;32.95;;
39956;SDS011;48483;44.640;7.494;2024-03-22T10:27:51;48.17;;;32.75;;
39956;SDS011;48483;44.640;7.494;2024-03-22T10:30:19;43.50;;;33.17;;
39956;SDS011;48483;44.640;7.494;2024-03-22T10:32:46;46.05;;;34.30;;
39956;SDS011;48483;44.640;7.494;2024-03-22T10:35:15;44.53;;;32.03;;
39956;SDS011;48483;44.640;7.494;2024-03-22T10:37:42;45.58;;;33.33;;
39956;SDS011;48483;44.640;7.494;2024-03-22T10:40:09;47.85;;;34.33;;
39956;SDS011;48483;44.640;7.494;2024-03-22T10:42:38;43.17;;;33.15;;
39956;SDS011;48483;44.640;7.494;2024-03-22T10:45:07;44.40;;;32.90;;
39956;SDS011;48483;44.640;7.494;2024-03-22T10:47:35;45.95;;;32.38;;
39956;SDS011;48483;44.640;7.494;2024-03-22T10:50:04;43.55;;;32.38;;
39956;SDS011;48483;44.640;7.494;2024-03-22T10:52:32;46.50;;;33.85;;
39956;SDS011;48483;44.640;7.494;2024-03-22T10:55:02;48.88;;;32.78;;
39956;SDS011;48483;44.640;7.494;2024-03-22T11:00:07;46.55;;;34.47;;
39956;SDS011;48483;44.640;7.494;2024-03-22T11:02:37;47.22;;;33.38;;
39956;SDS011;48483;44.640;7.494;2024-03-22T11:05:04;49.15;;;34.30;;
39956;SDS011;48483;44.640;7.494;2024-03-22T11:07:33;44.25;;;32.60;;
39956;SDS011;48483;44.640;7.494;2024-03-22T11:10:00;52.25;;;35.22;;
39956;SDS011;48483;44.640;7.494;2024-03-22T11:12:32;41.42;;;33.30;;
39956;SDS011;48483;44.640;7.494;2024-03-22T11:14:59;48.30;;;34.85;;
39956;SDS011;48483;44.640;7.494;2024-03-22T11:17:27;50.05;;;34.35;;
39956;SDS011;48483;44.640;7.494;2024-03-22T11:19:57;44.97;;;32.67;;
39956;SDS011;48483;44.640;7.494;2024-03-22T11:22:25;43.20;;;32.67;;
39956;SDS011;48483;44.640;7.494;2024-03-22T11:24:52;44.30;;;32.92;;
39956;SDS011;48483;44.640;7.494;2024-03-22T11:27:18;46.10;;;33.78;;
39956;SDS011;48483;44.640;7.494;2024-03-22T11:29:45;46.58;;;32.97;;
39956;SDS011;48483;44.640;7.494;2024-03-22T11:32:14;43.92;;;32.25;;
39956;SDS011;48483;44.640;7.494;2024-03-22T11:34:43;42.30;;;32.47;;
39956;SDS011;48483;44.640;7.494;2024-03-22T11:37:10;42.92;;;30.85;;
39956;SDS011;48483;44.640;7.494;2024-03-22T11:39:36;45.67;;;31.90;;
39956;SDS011;48483;44.640;7.494;2024-03-22T11:42:03;47.60;;;31.95;;
39956;SDS011;48483;44.640;7.494;2024-03-22T11:44:32;40.08;;;31.65;;
39956;SDS011;48483;44.640;7.494;2024-03-22T11:47:02;43.10;;;30.80;;
39956;SDS011;48483;44.640;7.494;2024-03-22T11:49:29;43.55;;;30.63;;
39956;SDS011;48483;44.640;7.494;2024-03-22T11:51:58;46.53;;;32.17;;
39956;SDS011;48483;44.640;7.494;2024-03-22T11:54:24;44.00;;;33.03;;
39956;SDS011;48483;44.640;7.494;2024-03-22T11:56:52;41.78;;;30.50;;
39956;SDS011;48483;44.640;7.494;2024-03-22T11:59:21;42.75;;;33.50;;
39956;SDS011;48483;44.640;7.494;2024-03-22T12:01:48;42.40;;;30.88;;
39956;SDS011;48483;44.640;7.494;2024-03-22T12:04:14;49.88;;;32.15;;
39956;SDS011;48483;44.640;7.494;2024-03-22T12:06:42;40.85;;;31.25;;
39956;SDS011;48483;44.640;7.494;2024-03-22T12:09:10;39.88;;;32.13;;
39956;SDS011;48483;44.640;7.494;2024-03-22T12:11:38;39.67;;;32.00;;
39956;SDS011;48483;44.640;7.494;2024-03-22T12:14:05;44.97;;;30.98;;
39956;SDS011;48483;44.640;7.494;2024-03-22T12:16:32;43.33;;;30.30;;
39956;SDS011;48483;44.640;7.494;2024-03-22T12:18:58;41.00;;;33.03;;
39956;SDS011;48483;44.640;7.494;2024-03-22T12:21:25;43.75;;;31.77;;
39956;SDS011;48483;44.640;7.494;2024-03-22T12:23:51;46.60;;;34.17;;
39956;SDS011;48483;44.640;7.494;2024-03-22T12:26:19;43.17;;;32.95;;
39956;SDS011;48483;44.640;7.494;2024-03-22T12:28:46;46.03;;;32.40;;
39956;SDS011;48483;44.640;7.494;2024-03-22T12:31:12;43.33;;;32.33;;
39956;SDS011;48483;44.640;7.494;2024-03-22T12:33:39;44.03;;;33.47;;
39956;SDS011;48483;44.640;7.494;2024-03-22T12:36:06;41.75;;;33.13;;
39956;SDS011;48483;44.640;7.494;2024-03-22T12:38:32;42.05;;;31.50;;
39956;SDS011;48483;44.640;7.494;2024-03-22T12:40:59;41.47;;;30.98;;
39956;SDS011;48483;44.640;7.494;2024-03-22T12:43:27;43.03;;;32.90;;
39956;SDS011;48483;44.640;7.494;2024-03-22T12:45:54;48.03;;;34.63;;
39956;SDS011;48483;44.640;7.494;2024-03-22T12:48:21;46.53;;;34.38;;
39956;SDS011;48483;44.640;7.494;2024-03-22T12:50:47;44.00;;;34.00;;
39956;SDS011;48483;44.640;7.494;2024-03-22T12:53:14;42.63;;;32.63;;
39956;SDS011;48483;44.640;7.494;2024-03-22T12:55:41;43.97;;;30.33;;
39956;SDS011;48483;44.640;7.494;2024-03-22T12:58:07;47.50;;;34.08;;
39956;SDS011;48483;44.640;7.494;2024-03-22T13:00:35;42.88;;;31.63;;
39956;SDS011;48483;44.640;7.494;2024-03-22T13:03:02;42.17;;;31.00;;
39956;SDS011;48483;44.640;7.494;2024-03-22T13:05:29;45.95;;;33.50;;
39956;SDS011;48483;44.640;7.494;2024-03-22T13:07:56;43.60;;;29.58;;
39956;SDS011;48483;44.640;7.494;2024-03-22T13:10:23;39.95;;;31.45;;
39956;SDS011;48483;44.640;7.494;2024-03-22T13:12:50;44.10;;;32.40;;
39956;SDS011;48483;44.640;7.494;2024-03-22T13:15:16;43.22;;;31.45;;
39956;SDS011;48483;44.640;7.494;2024-03-22T13:17:45;41.63;;;29.65;;
39956;SDS011;48483;44.640;7.494;2024-03-22T13:20:11;43.17;;;31.10;;
39956;SDS011;48483;44.640;7.494;2024-03-22T13:22:40;42.67;;;31.20;;
39956;SDS011;48483;44.640;7.494;2024-03-22T13:25:07;47.47;;;33.92;;
39956;SDS011;48483;44.640;7.494;2024-03-22T13:27:36;44.95;;;31.95;;
39956;SDS011;48483;44.640;7.494;2024-03-22T13:30:05;45.15;;;31.35;;
39956;SDS011;48483;44.640;7.494;2024-03-22T13:32:35;42.72;;;30.98;;
39956;SDS011;48483;44.640;7.494;2024-03-22T13:35:04;42.85;;;30.67;;
39956;SDS011;48483;44.640;7.494;2024-03-22T13:37:31;40.03;;;27.48;;
39956;SDS011;48483;44.640;7.494;2024-03-22T13:39:58;38.85;;;27.50;;
39956;SDS011;48483;44.640;7.494;2024-03-22T13:42:25;33.60;;;26.83;;
39956;SDS011;48483;44.640;7.494;2024-03-22T13:44:52;39.53;;;28.85;;
39956;SDS011;48483;44.640;7.494;2024-03-22T13:47:19;37.28;;;28.45;;
39956;SDS011;48483;44.640;7.494;2024-03-22T13:49:45;37.40;;;29.83;;
39956;SDS011;48483;44.640;7.494;2024-03-22T13:52:13;35.50;;;28.33;;
39956;SDS011;48483;44.640;7.494;2024-03-22T13:54:40;41.33;;;29.13;;
39956;SDS011;48483;44.640;7.494;2024-03-22T13:57:07;41.15;;;28.67;;
39956;SDS011;48483;44.640;7.494;2024-03-22T13:59:34;37.58;;;26.25;;
39956;SDS011;48483;44.640;7.494;2024-03-22T14:02:02;34.40;;;24.00;;
39956;SDS011;48483;44.640;7.494;2024-03-22T14:04:29;34.60;;;25.42;;
39956;SDS011;48483;44.640;7.494;2024-03-22T14:06:57;32.92;;;25.40;;
39956;SDS011;48483;44.640;7.494;2024-03-22T14:09:26;32.28;;;22.85;;
39956;SDS011;48483;44.640;7.494;2024-03-22T14:11:52;31.23;;;22.40;;
39956;SDS011;48483;44.640;7.494;2024-03-22T14:14:19;31.95;;;22.63;;
39956;SDS011;48483;44.640;7.494;2024-03-22T14:16:46;35.10;;;23.90;;
39956;SDS011;48483;44.640;7.494;2024-03-22T14:19:12;36.38;;;22.75;;
39956;SDS011;48483;44.640;7.494;2024-03-22T14:21:41;35.78;;;24.35;;
39956;SDS011;48483;44.640;7.494;2024-03-22T14:24:08;32.67;;;22.88;;
39956;SDS011;48483;44.640;7.494;2024-03-22T14:26:36;33.53;;;22.73;;
39956;SDS011;48483;44.640;7.494;2024-03-22T14:29:08;27.48;;;20.52;;